Terminal Aerodrome Forecast
Issued by NWS

Home | Current Version | Previous Version | Text Only | Print | Product List | Glossary On
Versions: 1 2 3 4 5 6 7 8 9 10 11 12 13 14 15 16
000
FTUS43 KMQT 261133
TAFSAW
TAF
KSAW 261133Z 2612/2712 01009KT P6SM SKC
     FM261500 01014G20KT P6SM FEW030
     FM270100 35008KT P6SM SCT040
     FM270500 35007KT P6SM BKN010
     FM270800 36007KT P6SM OVC006=

USA.gov is the U.S. government's official web portal to all federal, state and local government web resources and services.